createdAt,value
2023-03-08T00:00:29.511Z,7.35
2023-03-08T00:05:33.204Z,7.80
2023-03-08T00:10:34.766Z,6.82
2023-03-08T00:15:38.153Z,7.28
2023-03-08T00:20:39.673Z,7.05
2023-03-08T00:25:41.191Z,7.45
2023-03-08T00:30:42.686Z,6.38
2023-03-08T00:35:44.276Z,7.65
2023-03-08T00:40:45.830Z,7.53
2023-03-08T00:45:48.779Z,7.38
2023-03-08T00:50:52.206Z,8.63
2023-03-08T00:55:58.641Z,7.15
2023-03-08T01:01:01.282Z,7.78
2023-03-08T01:06:09.577Z,6.85
2023-03-08T01:11:23.941Z,8.05
2023-03-08T01:16:31.484Z,7.85
2023-03-08T01:21:33.657Z,7.38
2023-03-08T01:26:35.229Z,6.78
2023-03-08T01:31:36.931Z,6.03
2023-03-08T01:36:38.510Z,6.50
2023-03-08T01:41:40.062Z,6.53
2023-03-08T01:46:41.862Z,6.35
2023-03-08T01:52:09.802Z,7.18
2023-03-08T01:57:17.504Z,7.90
2023-03-08T02:02:28.253Z,7.88
2023-03-08T02:07:30.657Z,7.82
2023-03-08T02:12:33.965Z,6.45
2023-03-08T02:17:38.526Z,6.95
2023-03-08T02:22:41.772Z,6.38
2023-03-08T02:27:44.208Z,6.78
2023-03-08T02:32:45.884Z,6.05
2023-03-08T02:37:47.579Z,6.68
2023-03-08T02:42:50.691Z,7.00
2023-03-08T02:47:53.352Z,6.80
2023-03-08T02:52:55.315Z,5.63
2023-03-08T02:57:56.938Z,5.88
2023-03-08T03:02:58.638Z,5.60
2023-03-08T03:08:02.347Z,5.70
2023-03-08T03:13:06.300Z,6.15
2023-03-08T03:18:07.928Z,6.03
2023-03-08T03:23:09.511Z,6.30
2023-03-08T03:33:21.296Z,6.18
2023-03-08T03:38:23.510Z,5.22
2023-03-08T03:43:25.129Z,6.22
2023-03-08T03:48:27.488Z,8.35
2023-03-08T03:53:30.664Z,9.50
2023-03-08T03:58:32.686Z,9.65
2023-03-08T04:03:34.616Z,6.85
2023-03-08T04:08:42.280Z,7.50
2023-03-08T04:13:46.990Z,6.50
2023-03-08T04:18:52.875Z,6.30
2023-03-08T04:23:55.041Z,6.03
2023-03-08T04:28:57.476Z,7.05
2023-03-08T04:34:02.418Z,5.63
2023-03-08T04:39:04.297Z,4.88
2023-03-08T04:44:06.297Z,5.30
2023-03-08T04:49:15.657Z,4.75
2023-03-08T04:54:21.198Z,5.18
2023-03-08T04:59:28.862Z,5.10
2023-03-08T05:04:33.289Z,4.75
2023-03-08T05:09:35.390Z,4.18
2023-03-08T05:14:37.262Z,4.65
2023-03-08T05:19:38.878Z,4.05
2023-03-08T05:24:41.700Z,5.00
2023-03-08T05:29:46.120Z,4.43
2023-03-08T05:34:48.641Z,4.72
2023-03-08T05:45:00.152Z,4.75
2023-03-08T05:50:05.808Z,4.65
2023-03-08T05:55:11.074Z,4.75
2023-03-08T06:00:14.726Z,4.43
2023-03-08T06:05:23.882Z,5.30
2023-03-08T06:10:28.874Z,5.40
2023-03-08T06:15:30.580Z,5.18
2023-03-08T06:20:32.972Z,5.30
2023-03-08T06:25:35.253Z,4.75
2023-03-08T06:30:37.179Z,7.20
2023-03-08T06:35:39.880Z,8.18
2023-03-08T06:40:41.489Z,8.82
2023-03-08T06:45:43.142Z,9.15
2023-03-08T06:50:45.239Z,9.02
2023-03-08T06:55:47.164Z,10.32
2023-03-08T07:00:49.279Z,12.05
2023-03-08T07:05:50.817Z,10.82
2023-03-08T07:10:52.544Z,13.77
2023-03-08T07:15:54.201Z,12.73
2023-03-08T07:20:56.628Z,12.75
2023-03-08T07:25:58.257Z,9.02
2023-03-08T07:31:00.467Z,9.63
2023-03-08T07:36:04.599Z,9.35
2023-03-08T07:41:06.281Z,8.10
2023-03-08T07:46:07.812Z,8.48
2023-03-08T07:51:10.318Z,7.43
2023-03-08T07:56:12.014Z,7.45
2023-03-08T08:01:14.687Z,8.15
2023-03-08T08:06:17.651Z,8.65
2023-03-08T08:11:22.508Z,8.85
2023-03-08T08:16:24.261Z,7.68
2023-03-08T08:21:27.177Z,7.57
2023-03-08T08:26:29.093Z,8.45
2023-03-08T08:31:33.306Z,9.00
2023-03-08T08:36:35.098Z,8.60
2023-03-08T08:41:36.742Z,8.52
2023-03-08T08:46:38.275Z,8.52
2023-03-08T08:51:39.842Z,9.13
2023-03-08T08:56:43.151Z,9.10
2023-03-08T09:01:44.906Z,8.82
2023-03-08T09:06:47.300Z,10.38
2023-03-08T09:11:54.981Z,9.68
2023-03-08T09:16:57.357Z,8.90
2023-03-08T09:21:59.067Z,10.40
2023-03-08T09:27:00.684Z,9.73
2023-03-08T09:32:02.280Z,9.73
2023-03-08T09:37:05.822Z,7.95
2023-03-08T09:42:20.577Z,7.82
2023-03-08T09:47:51.587Z,8.18
2023-03-08T09:53:16.534Z,7.13
2023-03-08T09:58:40.713Z,9.00
2023-03-08T10:04:09.888Z,7.35
2023-03-08T10:09:34.454Z,7.38
2023-03-08T10:14:40.408Z,9.00
2023-03-08T10:19:53.182Z,7.85
2023-03-08T10:25:01.972Z,8.18
2023-03-08T10:30:16.977Z,8.18
2023-03-08T10:35:30.118Z,9.10
2023-03-08T10:40:31.756Z,9.48
2023-03-08T10:45:33.629Z,9.73
2023-03-08T10:50:36.937Z,10.02
2023-03-08T10:55:44.282Z,8.52
2023-03-08T11:00:54.354Z,9.52
2023-03-08T11:06:05.949Z,7.82
2023-03-08T11:11:10.244Z,2.40
2023-03-08T11:16:53.373Z,2.00
2023-03-08T11:22:05.085Z,1.73
2023-03-08T11:27:06.620Z,1.20
2023-03-08T11:32:14.186Z,1.60
2023-03-08T11:37:59.754Z,1.30
2023-03-08T11:43:18.378Z,2.72
2023-03-08T11:48:34.214Z,1.52
2023-03-08T11:53:54.703Z,1.10
2023-03-08T11:59:05.441Z,1.13
2023-03-08T12:04:17.367Z,1.00
2023-03-08T12:09:48.806Z,1.70
2023-03-08T12:15:00.348Z,1.08
2023-03-08T12:20:08.171Z,1.25
2023-03-08T12:25:20.784Z,2.15
2023-03-08T12:30:33.640Z,1.55
2023-03-08T12:35:37.173Z,1.27
2023-03-08T12:40:47.508Z,0.93
2023-03-08T12:46:09.676Z,1.05
2023-03-08T12:51:17.156Z,1.30
2023-03-08T12:56:34.373Z,1.20
2023-03-08T13:01:38.216Z,1.00
2023-03-08T13:06:51.636Z,0.85
2023-03-08T13:12:12.074Z,2.55
2023-03-08T13:17:32.371Z,0.80
2023-03-08T13:22:53.062Z,1.10
2023-03-08T13:28:11.462Z,1.27
2023-03-08T13:33:15.859Z,1.90
2023-03-08T13:38:22.073Z,1.40
2023-03-08T13:43:26.482Z,1.40
2023-03-08T13:48:36.110Z,1.55
2023-03-08T13:53:40.260Z,1.30
2023-03-08T13:58:46.701Z,0.80
2023-03-08T14:03:49.475Z,1.10
2023-03-08T14:08:53.562Z,1.45
2023-03-08T14:13:57.024Z,2.55
2023-03-08T14:19:21.800Z,2.78
2023-03-08T14:24:26.896Z,2.40
2023-03-08T14:29:30.520Z,2.20
2023-03-08T14:34:36.414Z,1.40
2023-03-08T14:39:41.656Z,2.00
2023-03-08T14:44:51.649Z,1.50
2023-03-08T14:49:59.450Z,1.60
2023-03-08T14:55:03.336Z,0.80
2023-03-08T15:00:14.540Z,0.90
2023-03-08T15:05:28.319Z,0.73
2023-03-08T15:10:37.355Z,0.70
2023-03-08T15:15:38.909Z,0.90
2023-03-08T15:20:45.016Z,0.60
2023-03-08T15:25:46.546Z,0.65
2023-03-08T15:30:54.596Z,0.43
2023-03-08T15:35:56.355Z,0.50
2023-03-08T15:40:57.906Z,0.43
2023-03-08T15:45:59.518Z,0.70
2023-03-08T15:51:01.198Z,0.47
2023-03-08T15:56:05.117Z,0.50
2023-03-08T16:01:07.157Z,1.13
2023-03-08T16:06:13.206Z,0.60
2023-03-08T16:11:17.384Z,0.50
2023-03-08T16:16:20.064Z,0.63
2023-03-08T16:21:21.608Z,0.57
2023-03-08T16:26:24.205Z,1.02
2023-03-08T16:31:25.767Z,0.80
2023-03-08T16:36:27.267Z,2.20
2023-03-08T16:41:30.075Z,1.73
2023-03-08T16:46:32.346Z,1.58
2023-03-08T16:51:37.303Z,1.75
2023-03-08T16:56:43.408Z,1.48
2023-03-08T17:01:47.301Z,2.28
2023-03-08T17:06:49.802Z,0.80
2023-03-08T17:11:51.322Z,0.50
2023-03-08T17:16:52.901Z,0.50
2023-03-08T17:21:54.536Z,0.50
2023-03-08T17:26:56.124Z,0.40
2023-03-08T17:31:57.660Z,0.40
2023-03-08T17:36:59.183Z,0.40
2023-03-08T17:42:00.672Z,0.30
2023-03-08T17:47:02.210Z,0.32
2023-03-08T17:52:03.837Z,0.20
2023-03-08T17:57:05.407Z,0.30
2023-03-08T18:02:07.019Z,0.40
2023-03-08T18:07:08.558Z,0.50
2023-03-08T18:12:10.208Z,0.50
2023-03-08T18:17:12.530Z,0.50
2023-03-08T18:22:15.667Z,0.50
2023-03-08T18:27:17.335Z,0.32
2023-03-08T18:32:18.978Z,0.60
2023-03-08T18:37:21.626Z,0.60
2023-03-08T18:42:23.243Z,0.60
2023-03-08T18:47:24.854Z,0.50
2023-03-08T18:52:26.403Z,0.60
2023-03-08T18:57:27.955Z,0.80
2023-03-08T19:02:29.753Z,0.60
2023-03-08T19:07:31.379Z,0.63
2023-03-08T19:12:33.696Z,1.30
2023-03-08T19:17:35.260Z,0.60
2023-03-08T19:22:36.857Z,0.63
2023-03-08T19:27:38.362Z,0.60
2023-03-08T19:32:42.493Z,0.75
2023-03-08T19:37:44.214Z,0.98
2023-03-08T19:42:45.767Z,1.30
2023-03-08T19:47:47.281Z,1.60
2023-03-08T19:52:48.850Z,0.80
2023-03-08T19:57:50.364Z,1.15
2023-03-08T20:02:51.903Z,1.30
2023-03-08T20:07:53.424Z,1.23
2023-03-08T20:12:54.958Z,1.85
2023-03-08T20:17:56.582Z,1.60
2023-03-08T20:22:58.114Z,1.40
2023-03-08T20:27:59.603Z,2.05
2023-03-08T20:33:01.130Z,2.35
2023-03-08T20:38:02.728Z,1.90
2023-03-08T20:43:04.346Z,2.35
2023-03-08T20:48:05.966Z,2.00
2023-03-08T20:53:07.463Z,2.33
2023-03-08T20:58:08.977Z,2.60
2023-03-08T21:03:10.656Z,3.38
2023-03-08T21:08:12.161Z,3.00
2023-03-08T21:13:13.889Z,2.50
2023-03-08T21:18:15.416Z,4.80
2023-03-08T21:23:21.284Z,3.00
2023-03-08T21:28:22.935Z,2.30
2023-03-08T21:33:24.447Z,2.28
2023-03-08T21:38:25.982Z,3.25
2023-03-08T21:43:27.473Z,2.63
2023-03-08T21:48:28.957Z,3.00
2023-03-08T21:53:30.512Z,3.20
2023-03-08T21:58:32.025Z,3.50
2023-03-08T22:03:34.715Z,2.80
2023-03-08T22:08:36.290Z,2.10
2023-03-08T22:13:37.790Z,2.35
2023-03-08T22:18:39.816Z,2.50
2023-03-08T22:23:41.330Z,2.53
2023-03-08T22:28:42.975Z,3.03
2023-03-08T22:33:45.299Z,2.63
2023-03-08T22:38:47.213Z,3.45
2023-03-08T22:43:49.588Z,2.35
2023-03-08T22:48:52.524Z,2.85
2023-03-08T22:53:54.071Z,3.22
2023-03-08T22:58:56.090Z,2.72
2023-03-08T23:03:59.521Z,2.22
2023-03-08T23:09:08.897Z,1.80
2023-03-08T23:14:11.450Z,2.25
2023-03-08T23:19:18.547Z,1.90
2023-03-08T23:24:20.256Z,2.00
2023-03-08T23:29:23.881Z,1.65
2023-03-08T23:34:25.420Z,1.75
2023-03-08T23:39:26.991Z,1.45
2023-03-08T23:44:28.683Z,1.60
2023-03-08T23:49:30.315Z,1.70
2023-03-08T23:54:31.807Z,2.10
2023-03-08T23:59:33.355Z,0.95
